METAR Data
IDs: Format: Raw Decoded Include TAF

Data at: 0422 UTC 27 Jan 2021

METAR for:KOTH (North Bend/SW Oregon, OR, US)
Text:KOTH 270356Z 000/00KT 8SM RA SCT017 OVC026 04/03 A2941
Temperature: 4.0°C ( 39°F)
Dewpoint: 3.0°C ( 37°F) [RH = 93%]
Pressure (altimeter):29.41 inches Hg ( 996.0 mb)
Visibility: 8 sm ( 13 km)
Ceiling:2600 feet AGL
Clouds: scattered clouds at 1700 feet AGL, overcast cloud deck at 2600 feet AGL
Weather:RA (moderate rain)
Text:KOTH 270256Z 180/09KT 7SM RA OVC025 04/02 A2940
Temperature: 4.0°C ( 39°F)
Dewpoint: 2.0°C ( 36°F) [RH = 87%]
Pressure (altimeter):29.40 inches Hg ( 995.7 mb)
Visibility: 7 sm ( 11 km)
Ceiling:2500 feet AGL
Clouds: overcast cloud deck at 2500 feet AGL
Weather:RA (moderate rain)

METAR for:KAST (Astoria Rgnl, OR, US)
Text:KAST 270355Z AUTO 12010G19KT 10SM SCT036 BKN050 OVC100 03/00 A2933 RMK AO2 SLP930 T00330000 $
Temperature: 3.3°C ( 38°F)
Dewpoint: 0.0°C ( 32°F) [RH = 79%]
Pressure (altimeter):29.33 inches Hg ( 993.3 mb) [Sea level pressure: 993.0 mb]
Winds:from the ESE (120 degrees) at 12 MPH (10 knots; 5.1 m/s) gusting to 22 MPH (19 knots; 9.8 m/s)
Visibility:10 or more sm (16+ km)
Ceiling:5000 feet AGL
Clouds: scattered clouds at 3600 feet AGL, broken clouds at 5000 feet AGL, overcast cloud deck at 10000 feet AGL
QC Flag:automated observation with no human augmentation; SOME DATA ABOVE MAY BE INACCURATE!!!"$" is an indication the sensor requires maintenance.
Text:KAST 270255Z AUTO 12011G21KT 10SM OVC050 03/00 A2931 RMK AO2 PK WND 10026/0201 SLP926 60000 T00280000 55009 $
Temperature: 2.8°C ( 37°F)
Dewpoint: 0.0°C ( 32°F) [RH = 82%]
Pressure (altimeter):29.31 inches Hg ( 992.6 mb) [Sea level pressure: 992.6 mb]
Winds:from the ESE (120 degrees) at 13 MPH (11 knots; 5.7 m/s) gusting to 24 MPH (21 knots; 10.8 m/s)
Visibility:10 or more sm (16+ km)
Ceiling:5000 feet AGL
Clouds: overcast cloud deck at 5000 feet AGL
QC Flag:automated observation with no human augmentation; SOME DATA ABOVE MAY BE INACCURATE!!!"$" is an indication the sensor requires maintenance.

METAR for:KPDX (Portland Intl Arpt, OR, US)
Text:KPDX 270353Z 12022KT 10SM -RA BKN050 OVC070 04/00 A2939 RMK AO2 PK WND 10030/0329 SLP952 P0000 T00390000
Temperature: 3.9°C ( 39°F)
Dewpoint: 0.0°C ( 32°F) [RH = 76%]
Pressure (altimeter):29.39 inches Hg ( 995.3 mb) [Sea level pressure: 995.2 mb]
Winds:from the ESE (120 degrees) at 25 MPH (22 knots; 11.3 m/s)
Visibility:10 or more sm (16+ km)
Ceiling:5000 feet AGL
Clouds: broken clouds at 5000 feet AGL, overcast cloud deck at 7000 feet AGL
Weather:-RA (light rain)
Text:KPDX 270253Z 12020G27KT 10SM -RA OVC049 04/01 A2940 RMK AO2 PK WND 11031/0209 SLP955 P0001 60008 T00390006 56020
Temperature: 3.9°C ( 39°F)
Dewpoint: 0.6°C ( 33°F) [RH = 79%]
Pressure (altimeter):29.40 inches Hg ( 995.7 mb) [Sea level pressure: 995.5 mb]
Winds:from the ESE (120 degrees) at 23 MPH (20 knots; 10.3 m/s) gusting to 31 MPH (27 knots; 13.9 m/s)
Visibility:10 or more sm (16+ km)
Ceiling:4900 feet AGL
Clouds: overcast cloud deck at 4900 feet AGL
Weather:-RA (light rain)

METAR for:KDLS (The Dalles Muni, OR, US)
Text:KDLS 270353Z AUTO 10012KT 10SM OVC039 03/00 A2957 RMK AO2 SLP017 T00280000 $
Temperature: 2.8°C ( 37°F)
Dewpoint: 0.0°C ( 32°F) [RH = 82%]
Pressure (altimeter):29.57 inches Hg (1001.4 mb) [Sea level pressure: 1001.7 mb]
Winds:from the E (100 degrees) at 14 MPH (12 knots; 6.2 m/s)
Visibility:10 or more sm (16+ km)
Ceiling:3900 feet AGL
Clouds: overcast cloud deck at 3900 feet AGL
QC Flag:automated observation with no human augmentation; SOME DATA ABOVE MAY BE INACCURATE!!!"$" is an indication the sensor requires maintenance.
Text:KDLS 270253Z AUTO 09012KT 10SM OVC030 02/00 A2959 RMK AO2 UPE0158 SLP022 P0000 60001 T00220000 58006 $
Temperature: 2.2°C ( 36°F)
Dewpoint: 0.0°C ( 32°F) [RH = 85%]
Pressure (altimeter):29.59 inches Hg (1002.1 mb) [Sea level pressure: 1002.2 mb]
Winds:from the E (90 degrees) at 14 MPH (12 knots; 6.2 m/s)
Visibility:10 or more sm (16+ km)
Ceiling:3000 feet AGL
Clouds: overcast cloud deck at 3000 feet AGL
QC Flag:automated observation with no human augmentation; SOME DATA ABOVE MAY BE INACCURATE!!!"$" is an indication the sensor requires maintenance.

METAR for:KPSC (Pasco/Tri Cities Arp, WA, US)
Text:KPSC 270353Z 27004KT 10SM BKN085 OVC110 01/M02 A2964 RMK AO2 SLP040 T00061017
Temperature: 0.6°C ( 33°F)
Dewpoint: -1.7°C ( 29°F) [RH = 85%]
Pressure (altimeter):29.64 inches Hg (1003.8 mb) [Sea level pressure: 1004.0 mb]
Winds:from the W (270 degrees) at 5 MPH (4 knots; 2.1 m/s)
Visibility:10 or more sm (16+ km)
Ceiling:8500 feet AGL
Clouds: broken clouds at 8500 feet AGL, overcast cloud deck at 11000 feet AGL
Text:KPSC 270253Z 33004KT 10SM FEW120 00/M02 A2964 RMK AO2 SLP039 T00001022 56017
Temperature: 0.0°C ( 32°F)
Dewpoint: -2.2°C ( 28°F) [RH = 85%]
Pressure (altimeter):29.64 inches Hg (1003.8 mb) [Sea level pressure: 1003.9 mb]
Winds:from the NNW (330 degrees) at 5 MPH (4 knots; 2.1 m/s)
Visibility:10 or more sm (16+ km)
Ceiling:at least 12,000 feet AGL
Clouds: few clouds at 12000 feet AGL

METAR for:KHRI (Hermiston Muni, OR, US)
Text:KHRI 270353Z AUTO 24010KT 10SM BKN075 OVC090 04/M03 A2960 RMK AO2 SLP027 T00391028 $
Temperature: 3.9°C ( 39°F)
Dewpoint: -2.8°C ( 27°F) [RH = 62%]
Pressure (altimeter):29.60 inches Hg (1002.5 mb) [Sea level pressure: 1002.7 mb]
Winds:from the WSW (240 degrees) at 12 MPH (10 knots; 5.1 m/s)
Visibility:10 or more sm (16+ km)
Ceiling:7500 feet AGL
Clouds: broken clouds at 7500 feet AGL, overcast cloud deck at 9000 feet AGL
QC Flag:automated observation with no human augmentation; SOME DATA ABOVE MAY BE INACCURATE!!!"$" is an indication the sensor requires maintenance.
Text:KHRI 270253Z AUTO 11007KT 10SM OVC090 03/M03 A2958 RMK AO2 SLP022 T00331033 56015 $
Temperature: 3.3°C ( 38°F)
Dewpoint: -3.3°C ( 26°F) [RH = 62%]
Pressure (altimeter):29.58 inches Hg (1001.8 mb) [Sea level pressure: 1002.2 mb]
Winds:from the ESE (110 degrees) at 8 MPH (7 knots; 3.6 m/s)
Visibility:10 or more sm (16+ km)
Ceiling:9000 feet AGL
Clouds: overcast cloud deck at 9000 feet AGL
QC Flag:automated observation with no human augmentation; SOME DATA ABOVE MAY BE INACCURATE!!!"$" is an indication the sensor requires maintenance.

METAR for:KGEG (Spokane Intl, WA, US)
Text:KGEG 270353Z 06006KT 10SM CLR M04/M06 A2966 RMK AO2 SLP069 T10441061
Temperature: -4.4°C ( 24°F)
Dewpoint: -6.1°C ( 21°F) [RH = 88%]
Pressure (altimeter):29.66 inches Hg (1004.5 mb) [Sea level pressure: 1006.9 mb]
Winds:from the ENE (60 degrees) at 7 MPH (6 knots; 3.1 m/s)
Visibility:10 or more sm (16+ km)
Ceiling:at least 12,000 feet AGL
Clouds:sky clear below 12,000 feet AGL
Text:KGEG 270253Z 06007KT 10SM CLR M03/M06 A2965 RMK AO2 SLP065 T10331061 58017
Temperature: -3.3°C ( 26°F)
Dewpoint: -6.1°C ( 21°F) [RH = 81%]
Pressure (altimeter):29.65 inches Hg (1004.1 mb) [Sea level pressure: 1006.5 mb]
Winds:from the ENE (60 degrees) at 8 MPH (7 knots; 3.6 m/s)
Visibility:10 or more sm (16+ km)
Ceiling:at least 12,000 feet AGL
Clouds:sky clear below 12,000 feet AGL